Hovedside
METAR-TAF:

METAR-TAF

Lufthavner :

Tammerfors-Birkala lufthavn

Tammerfors, Finland

breddegrad: 61-25N, lengdegrad: 023-35E, høyde over havet: 112 m

Gjeldene værobservasjon

Denne rapporten ble laget for 43 minutter siden, klokken 09:20 UTC
Vind 10 kt fra Øst
Temperatur 2°C
Luftfuktighet 93%
Trykk 995 hPa
Sikt: 7000 m
Brutte skyer i en høyde av 400 ft

METAR: EFTP 100920Z 09010KT 7000 BKN004 02/01 Q0995

Tid: 12:03 (10:03 UTC)

Varsel

Denne rapporten ble laget for 1 time og 26 minutter siden, klokken 08:37 UTC
Varsel gyldig fra 10. klokken 09 UTC til 11. klokken 09 UTC
Vind 9 kt fra Øst
Sikt: 8000 m
Brutte skyer i en høyde av 500 ft
Midlertidig
fra 10. klokken 09 UTC til 11. klokken 09 UTC
Sikt: 1200 m
Brutte skyer i en høyde av 200 ft
dis

TAF: EFTP 100837Z 1009/1109 10009KT 8000 BKN005 TEMPO 1009/1109 1200 BR BKN002

Værobservasjoner og værvarsel for over 4000 flyplasser (METAR- og TAF-rapporter).

Tilgjengelige stasjoner er representert av de røde og gule prikkene på kartet.

Hold musepekeren over prikken for å se navnet på stasjonen.

Klikk så for å se værobservasjoner og -varsler.

For å forandre kartet kan du klikke på den grønne knappen med svart kryss for å zoome inn, på den grønne knappen med strek for å zoome ut, eller på de grønne pilene for å se tilstøtende kart.


METAR-TAF: